Latest Weather Observations for Friendly Beaches

IDT60801

Issued at 8:05 pm EST Thursday 2 October 2014 (issued every 30 minutes, with the page automatically refreshed every 10 minutes)

About weather observations | Map of weather stations | Latest weather observations for TAS | Other Formats
Station Details ID: 092114 Name: FRIENDLY BEACHES Lat: -42.00 Lon: 148.28 Height: 55.0 m
Data from the previous 72 hours. | See also: Recent months at Friendly Beaches
Date/Time
EST
Temp
°C
App
Temp
°C
Dew
Point
Rel
Hum
%
Delta-T
°C
Wind Press
QNH
hPa
Press
MSL
hPa
Rain
since 9 am
mm
Dir
 
Spd
km/h
Gust
km/h
Spd
kts
Gust
kts
02/08:00pm 11.9 6.5 1.5 49 4.4 WSW 19 32 10 17 1016.7 1016.7 0.0
02/07:30pm 12.5 7.0 1.8 48 4.6 WSW 20 33 11 18 1016.3 1016.3 0.0
02/07:00pm 12.9 7.0 1.6 46 4.9 WSW 22 35 12 19 1015.4 1015.4 0.0
02/06:30pm 11.4 8.8 4.2 61 3.2 SW 7 13 4 7 1015.0 1015.0 0.0
02/06:00pm 12.6 8.9 4.3 57 3.8 SSW 13 20 7 11 1014.6 1014.6 0.0
02/05:30pm 13.4 9.6 5.6 59 3.7 S 15 24 8 13 1014.3 1014.3 0.0
02/05:00pm 14.6 10.9 6.4 58 4.0 S 15 26 8 14 1013.8 1013.8 0.0
02/04:30pm 16.2 12.3 7.2 55 4.5 S 17 30 9 16 1013.3 1013.3 0.0
02/04:00pm 18.0 14.2 7.7 51 5.2 S 17 30 9 16 1012.9 1012.9 0.0
02/03:30pm 20.0 14.3 2.8 32 8.1 SW 22 37 12 20 1012.4 1012.4 0.0
02/03:00pm 19.9 14.8 4.0 35 7.6 SW 20 37 11 20 1012.2 1012.2 0.0
02/02:30pm 19.8 13.3 2.6 32 8.0 SW 26 43 14 23 1011.8 1011.8 0.0
02/02:18pm 19.6 12.6 2.0 31 8.1 SW 28 48 15 26 1011.7 1011.7 0.0
02/02:00pm 19.8 13.8 3.1 33 7.9 SW 24 41 13 22 1011.7 1011.7 0.0
02/01:30pm 19.2 12.2 2.1 32 7.8 SW 28 56 15 30 1011.6 1011.6 0.0
02/01:26pm 19.8 12.8 1.7 30 8.3 SW 28 56 15 30 1011.5 1011.5 0.0
02/01:00pm 19.8 13.8 3.1 33 7.9 WSW 24 41 13 22 1011.4 1011.4 0.0
02/12:30pm 19.6 13.1 2.9 33 7.8 WSW 26 41 14 22 1011.5 1011.5 0.0
02/12:00pm 18.8 12.4 3.4 36 7.2 WSW 26 43 14 23 1011.7 1011.7 0.0
02/11:30am 18.6 12.2 3.3 36 7.2 WSW 26 44 14 24 1011.7 1011.7 0.0
02/11:00am 18.5 12.6 3.9 38 6.9 WSW 24 41 13 22 1011.9 1011.9 0.0
02/10:30am 18.6 12.9 4.8 40 6.7 WSW 24 43 13 23 1011.7 1011.7 0.0
02/10:00am 18.0 11.9 4.9 42 6.3 W 26 41 14 22 1011.2 1011.2 0.0
02/09:30am 17.7 12.0 5.0 43 6.1 W 24 35 13 19 1011.3 1011.3 0.0
02/09:00am 16.8 11.1 4.8 45 5.7 WSW 24 37 13 20 1011.3 1011.3 0.0
02/08:30am 15.9 10.9 4.6 47 5.3 WSW 20 39 11 21 1011.6 1011.6 0.0
02/08:00am 14.6 10.6 4.9 52 4.5 W 15 28 8 15 1011.7 1011.7 0.0
02/07:30am 13.7 10.4 4.8 55 4.1 W 11 20 6 11 1011.6 1011.6 0.0
02/07:00am 12.6 9.0 4.8 59 3.6 W 13 19 7 10 1011.4 1011.4 0.0
02/06:30am 11.9 8.6 4.6 61 3.3 W 11 22 6 12 1011.2 1011.2 0.0
02/06:00am 11.4 8.1 4.6 63 3.1 WNW 11 22 6 12 1010.5 1010.5 0.0
02/05:30am 11.1 8.6 4.8 65 2.9 WNW 7 19 4 10 1010.5 1010.5 0.0
02/05:00am 10.8 8.9 4.7 66 2.8 NW 4 11 2 6 1010.4 1010.4 0.0
02/04:30am 11.4 8.6 5.1 65 2.9 WNW 9 17 5 9 1010.3 1010.3 0.0
02/04:00am 11.1 8.3 5.2 67 2.7 W 9 24 5 13 1010.2 1010.2 0.0
02/03:30am 11.7 8.5 4.9 63 3.1 W 11 20 6 11 1010.1 1010.1 0.0
02/03:00am 12.1 8.1 4.8 61 3.4 W 15 26 8 14 1010.0 1010.0 0.0
02/02:30am 11.3 8.8 4.7 64 3.0 W 7 15 4 8 1010.1 1010.1 0.0
02/02:00am 12.0 8.7 4.5 60 3.4 WNW 11 20 6 11 1010.5 1010.5 0.0
02/01:30am 11.6 8.3 4.8 63 3.1 W 11 26 6 14 1011.0 1011.0 0.0
02/01:00am 10.7 8.3 4.4 65 2.8 WNW 6 15 3 8 1011.4 1011.4 0.0
02/12:30am 10.6 8.2 4.3 65 2.8 NNW 6 9 3 5 1012.1 1012.1 0.0
02/12:00am 11.2 7.9 4.4 63 3.1 WNW 11 19 6 10 1012.3 1012.3 0.0
 
Date/Time
EST
Temp
°C
App
Temp
°C
Dew
Point
Rel
Hum
%
Delta-T
°C
Wind Press
QNH
hPa
Press
MSL
hPa
Rain
since 9 am
mm
Dir
 
Spd
km/h
Gust
km/h
Spd
kts
Gust
kts
01/11:30pm 11.1 8.1 3.9 61 3.2 WNW 9 17 5 9 1012.6 1012.6 0.0
01/11:00pm 11.2 7.3 3.5 59 3.4 NW 13 22 7 12 1012.8 1012.8 0.0
01/10:30pm 11.1 6.4 2.9 57 3.6 NW 17 32 9 17 1013.1 1013.1 0.0
01/10:00pm 11.2 5.8 2.5 55 3.8 NW 20 32 11 17 1013.5 1013.5 0.0
01/09:30pm 10.9 6.5 2.5 56 3.6 NW 15 26 8 14 1014.0 1014.0 0.0
01/09:00pm 10.6 6.8 1.9 55 3.7 NNW 11 19 6 10 1014.3 1014.3 0.0
01/08:30pm 10.4 8.0 2.0 56 3.6 WNW 4 6 2 3 1014.8 1014.8 0.0
01/08:00pm 11.3 7.6 2.1 53 3.9 W 11 19 6 10 1015.1 1015.1 0.0
01/07:30pm 11.8 7.7 2.3 52 4.1 W 13 24 7 13 1015.5 1015.5 0.0
01/07:00pm 11.8 7.3 2.0 51 4.2 WSW 15 26 8 14 1015.5 1015.5 0.0
01/06:30pm 11.9 7.3 1.8 50 4.3 WSW 15 26 8 14 1015.1 1015.1 0.0
01/06:00pm 12.3 7.7 1.6 48 4.6 WSW 15 30 8 16 1014.9 1014.9 0.0
01/05:30pm 13.2 6.4 0.9 43 5.2 WSW 26 41 14 22 1014.7 1014.7 0.0
01/05:00pm 13.8 8.7 0.5 40 5.6 W 17 32 9 17 1014.4 1014.4 0.0
01/04:30pm 14.5 9.4 3.0 46 5.2 WSW 19 32 10 17 1014.2 1014.2 0.0
01/04:00pm 13.7 9.1 1.4 43 5.3 WSW 15 26 8 14 1013.8 1013.8 0.0
01/03:30pm 15.3 10.0 1.8 40 6.0 WSW 19 32 10 17 1013.8 1013.8 0.0
01/03:00pm 15.1 9.7 2.3 42 5.7 WSW 20 39 11 21 1014.1 1014.1 0.0
01/02:30pm 15.2 9.3 1.4 39 6.0 WSW 22 43 12 23 1013.8 1013.8 0.0
01/02:00pm 15.5 8.3 0.5 36 6.4 W 28 54 15 29 1013.5 1013.5 0.0
01/01:59pm 15.7 8.4 0.3 35 6.6 W 28 54 15 29 1013.4 1013.4 0.0
01/01:30pm 15.6 10.0 1.0 37 6.3 WSW 20 32 11 17 1013.6 1013.6 0.0
01/01:00pm 15.5 9.7 -0.3 34 6.7 WSW 20 35 11 19 1013.7 1013.7 0.0
01/12:30pm 15.8 8.5 0.0 34 6.7 WSW 28 48 15 26 1013.9 1013.9 0.0
01/12:29pm 15.7 8.4 -0.1 34 6.7 WSW 28 48 15 26 1013.9 1013.9 0.0
01/12:00pm 15.7 10.1 -0.1 34 6.7 WSW 19 32 10 17 1013.7 1013.7 0.0
01/11:30am 14.9 9.3 0.0 36 6.3 WSW 19 33 10 18 1013.6 1013.6 0.0
01/11:00am 14.0 8.3 0.3 39 5.8 WSW 20 33 11 18 1013.5 1013.5 0.0
01/10:30am 13.2 7.1 0.6 42 5.3 WSW 22 39 12 21 1013.7 1013.7 0.0
01/10:00am 13.8 7.9 1.5 43 5.3 WSW 22 41 12 22 1013.7 1013.7 0.0
01/09:30am 12.2 6.1 0.6 45 4.8 WSW 22 39 12 21 1013.5 1013.5 0.0
01/09:07am 11.7 4.5 0.5 46 4.6 WSW 28 46 15 25 1013.3 1013.3 0.0
01/09:00am 11.5 5.0 0.0 45 4.7 WSW 24 43 13 23 1013.2 1013.2 0.6
01/08:30am 10.6 4.2 0.9 51 4.0 WSW 24 41 13 22 1013.0 1013.0 0.6
01/08:00am 9.6 3.2 0.8 54 3.6 WSW 24 44 13 24 1012.4 1012.4 0.6
01/07:30am 8.6 2.6 0.8 58 3.2 WSW 22 33 12 18 1012.0 1012.0 0.6
01/07:00am 7.8 2.3 0.8 61 2.8 WSW 19 32 10 17 1011.5 1011.5 0.6
01/06:30am 7.5 2.3 0.3 60 2.8 W 17 28 9 15 1010.9 1010.9 0.6
01/06:00am 6.8 1.5 -0.4 60 2.8 WSW 17 30 9 16 1010.2 1010.2 0.6
01/05:30am 6.9 2.1 -0.1 61 2.7 W 15 26 8 14 1009.1 1009.1 0.6
01/05:00am 7.4 1.3 0.2 60 2.8 WSW 22 35 12 19 1008.2 1008.2 0.6
01/04:30am 7.3 1.5 -0.4 58 3.0 W 20 32 11 17 1007.2 1007.2 0.6
01/04:00am 7.4 0.8 -0.3 58 3.0 W 24 35 13 19 1006.3 1006.3 0.6
01/03:30am 7.5 1.2 -0.9 55 3.2 WSW 22 33 12 18 1006.6 1006.6 0.6
01/03:00am 7.5 2.2 -0.7 56 3.2 WSW 17 28 9 15 1006.3 1006.3 0.6
01/02:30am 7.5 2.9 -0.7 56 3.2 WSW 13 26 7 14 1005.9 1005.9 0.6
01/02:00am 7.2 2.6 -1.2 55 3.2 WSW 13 20 7 11 1005.3 1005.3 0.6
01/01:30am 7.5 1.8 -0.9 55 3.2 WSW 19 30 10 16 1005.1 1005.1 0.6
01/01:00am 8.0 1.4 -0.7 54 3.4 WSW 24 35 13 19 1004.6 1004.6 0.6
01/12:42am 7.9 0.5 -0.6 55 3.3 WSW 28 46 15 25 1004.1 1004.1 0.6
01/12:30am 7.7 1.8 -0.5 56 3.2 WSW 20 30 11 16 1004.1 1004.1 0.6
01/12:00am 7.8 1.7 0.1 58 3.1 WSW 22 37 12 20 1003.6 1003.6 0.6
 
Date/Time
EST
Temp
°C
App
Temp
°C
Dew
Point
Rel
Hum
%
Delta-T
°C
Wind Press
QNH
hPa
Press
MSL
hPa
Rain
since 9 am
mm
Dir
 
Spd
km/h
Gust
km/h
Spd
kts
Gust
kts
30/11:30pm 8.1 2.0 0.1 57 3.2 WSW 22 33 12 18 1003.3 1003.3 0.6
30/11:00pm 8.2 2.4 0.2 57 3.2 WSW 20 33 11 18 1003.1 1003.1 0.6
30/10:30pm 8.3 2.6 0.5 58 3.1 WSW 20 35 11 19 1002.4 1002.4 0.6
30/10:00pm 8.5 2.8 0.7 58 3.2 W 20 43 11 23 1002.1 1002.1 0.6
30/09:30pm 8.6 2.6 1.3 60 3.0 WSW 22 35 12 19 1001.2 1001.3 0.6
30/09:02pm 9.2 2.1 1.1 57 3.3 WSW 28 48 15 26 1000.2 1000.3 0.6
30/09:00pm 9.2 2.0 0.9 56 3.4 WSW 28 44 15 24 1000.1 1000.2 0.6
30/08:30pm 9.2 3.1 2.8 64 2.7 WSW 24 35 13 19 999.3 999.3 0.6
30/08:02pm 9.8 2.7 3.5 65 2.7 WSW 30 50 16 27 999.1 999.1 0.6
30/08:00pm 9.8 2.3 3.5 65 2.8 WSW 32 50 17 27 999.0 999.0 0.6
30/07:51pm 10.1 3.5 4.3 67 2.6 WSW 28 54 15 29 998.8 998.8 0.6
30/07:30pm 10.0 5.2 5.6 74 2.0 WSW 20 41 11 22 997.9 997.9 0.6
30/07:00pm 9.9 5.1 7.5 85 1.2 WSW 22 46 12 25 996.3 996.3 0.4
30/06:30pm 12.9 9.4 7.1 68 2.8 WNW 15 28 8 15 995.5 995.5 0.0
30/06:00pm 13.4 10.6 7.0 65 3.1 WNW 11 20 6 11 995.2 995.2 0.0
30/05:30pm 13.6 12.2 7.2 65 3.1 WNW 4 11 2 6 995.0 995.0 0.0
30/05:00pm 14.0 11.3 7.5 65 3.2 W 11 24 6 13 994.2 994.2 0.0
30/04:30pm 15.1 13.0 8.1 63 3.5 WNW 9 22 5 12 993.5 993.5 0.0
30/04:00pm 14.1 9.7 7.6 65 3.2 W 20 37 11 20 993.8 993.8 0.0
30/03:30pm 16.4 12.1 7.9 57 4.3 NW 20 39 11 21 993.9 993.9 0.0
30/03:02pm 18.5 12.6 7.6 49 5.5 NW 28 50 15 27 993.4 993.4 0.0
30/03:00pm 18.7 13.2 7.5 48 5.7 NW 26 44 14 24 993.3 993.3 0.0
30/02:30pm 18.6 14.1 6.8 46 5.9 NW 20 39 11 21 993.4 993.4 0.0
30/02:00pm 18.7 15.1 6.9 46 6.0 NW 15 33 8 18 993.9 993.9 0.0
30/01:30pm 18.4 12.3 6.6 46 5.9 NW 28 46 15 25 994.2 994.2 0.0
30/01:29pm 18.4 12.3 6.6 46 5.9 NW 28 46 15 25 994.1 994.1 0.0
30/01:00pm 18.0 16.1 7.4 50 5.4 NNE 7 19 4 10 994.2 994.2 0.0
30/12:30pm 18.8 16.9 6.9 46 6.0 NNW 6 15 3 8 994.9 994.9 0.0
30/12:00pm 19.0 15.3 6.2 43 6.4 WNW 15 28 8 15 995.5 995.5 0.0
30/11:30am 20.6 15.2 6.5 40 7.1 WNW 24 41 13 22 995.7 995.7 0.0
30/11:00am 20.0 13.7 5.6 39 7.2 WNW 28 46 15 25 996.1 996.1 0.0
30/10:41am 20.4 14.0 5.2 37 7.5 NW 28 69 15 37 996.5 996.5 0.0
30/10:30am 20.4 15.1 4.8 36 7.6 NW 22 41 12 22 996.7 996.7 0.0
30/10:00am 19.4 14.5 4.0 36 7.4 NW 19 33 10 18 997.7 997.7 0.0
30/09:30am 18.2 13.9 5.4 43 6.2 NW 17 30 9 16 998.4 998.4 0.0
30/09:00am 19.6 17.4 7.7 46 6.2 N 9 24 5 13 998.7 998.7 0.0
30/08:30am 18.1 15.1 9.2 56 4.7 N 15 26 8 14 999.2 999.2 0.0
30/08:00am 16.5 12.1 9.0 61 3.9 N 22 37 12 20 999.6 999.6 0.0
30/07:30am 15.4 11.5 9.3 67 3.1 N 20 33 11 18 999.9 1000.0 0.0
30/07:00am 14.5 11.5 9.1 70 2.8 N 15 28 8 15 1000.8 1000.9 0.0
30/06:30am 14.3 12.3 8.5 68 2.9 N 9 20 5 11 1001.1 1001.2 0.0
30/06:00am 13.1 11.7 7.1 67 2.9 NNE 4 11 2 6 1001.5 1001.5 0.0
30/05:30am 13.4 11.9 6.7 64 3.2 NNW 4 9 2 5 1001.9 1001.9 0.0
30/05:00am 14.1 11.5 6.2 59 3.8 N 9 13 5 7 1001.8 1001.8 0.0
30/04:30am 15.1 12.5 6.1 55 4.3 N 9 26 5 14 1002.0 1002.0 0.0
30/04:00am 15.9 9.3 6.1 52 4.8 NNW 30 57 16 31 1002.3 1002.3 0.0
30/03:30am 15.3 8.8 6.6 56 4.2 NW 30 50 16 27 1002.7 1002.7 0.0
30/03:20am 15.4 9.3 6.7 56 4.3 NW 28 48 15 26 1002.9 1002.9 0.0
30/03:00am 15.6 10.6 6.6 55 4.4 NW 22 35 12 19 1003.4 1003.4 0.0
30/02:38am 15.7 9.6 6.7 55 4.4 NNW 28 70 15 38 1002.9 1002.9 0.0
30/02:30am 15.4 9.6 6.4 55 4.4 NNW 26 44 14 24 1003.1 1003.1 0.0
30/02:11am 15.5 9.4 6.5 55 4.4 NNW 28 63 15 34 1003.3 1003.3 0.0
30/02:00am 15.3 10.0 6.6 56 4.3 NW 24 46 13 25 1003.6 1003.6 0.0
30/01:30am 15.3 10.3 6.3 55 4.4 NNW 22 46 12 25 1004.0 1004.0 0.0
30/01:00am 15.7 8.6 6.4 54 4.6 NW 33 61 18 33 1003.9 1003.9 0.0
30/12:31am 15.7 9.6 6.7 55 4.4 NW 28 54 15 29 1003.9 1003.9 0.0
30/12:30am 15.6 9.9 6.6 55 4.4 NW 26 52 14 28 1003.9 1003.9 0.0
30/12:00am 15.9 9.0 6.3 53 4.7 NW 32 69 17 37 1003.7 1003.7 0.0
 
Date/Time
EST
Temp
°C
App
Temp
°C
Dew
Point
Rel
Hum
%
Delta-T
°C
Wind Press
QNH
hPa
Press
MSL
hPa
Rain
since 9 am
mm
Dir
 
Spd
km/h
Gust
km/h
Spd
kts
Gust
kts
29/11:30pm 15.7 8.7 6.2 53 4.6 WNW 32 61 17 33 1004.0 1004.0 0.0
29/11:00pm 15.4 7.4 5.9 53 4.6 WNW 37 61 20 33 1003.7 1003.7 0.0
29/10:30pm 14.9 7.7 5.1 52 4.6 WNW 32 61 17 33 1004.1 1004.1 0.0
29/10:01pm 14.6 8.1 4.9 52 4.5 NW 28 56 15 30 1004.6 1004.6 0.0
29/10:00pm 14.7 8.6 5.0 52 4.6 NW 26 56 14 30 1004.6 1004.6 0.0
29/09:59pm 14.7 8.3 5.0 52 4.6 NW 28 56 15 30 1004.7 1004.7 0.0
29/09:30pm 14.1 8.0 4.7 53 4.4 NW 26 52 14 28 1005.0 1005.0 0.0
29/09:00pm 13.5 9.7 3.8 52 4.4 NNW 13 37 7 20 1005.3 1005.3 0.0
29/08:30pm 13.6 9.1 4.2 53 4.3 WNW 17 39 9 21 1005.4 1005.4 0.0

Other Formats:

Comma delimited format used in spreadsheet applications
http://www.bom.gov.au/fwo/IDT60801/IDT60801.94987.axf

JavaScript Object Notation format (JSON) in row-major order
http://www.bom.gov.au/fwo/IDT60801/IDT60801.94987.json